Terminal Aerodrome Forecast
Issued by NWS Duluth, MN

Home | Current Version | Previous Version | Text Only | Print | Product List | Glossary On
Versions: 1 2 3 4 5 6 7 8 9 10 11 12 13 14 15
146
FTUS43 KDLH 221127
TAFDLH
TAF
KDLH 221127Z 2212/2312 VRB03KT P6SM BKN035 OVC060
     FM221600 24005KT P6SM SCT060
     FM230300 25003KT P6SM SCT250=

USA.gov is the U.S. government's official web portal to all federal, state and local government web resources and services.